Tazewell, Virginia
Current Conditions -  °F | °C
As of 5:55 PM on Tuesday 27 Jan 2015 (Local Time) from KJFZ Reporting Station
Overcast Overcast  
Wind Chill: 16°   Ceiling: 10000
Heat Index: 26°   Visibility: 10mi
Dew Point:   Wind: 10mph
Humidity: 37%   Direction: 330°NNW
Pressure: 29.93"   Gusts: 17mph
Location:  37.11°N, 81.52°W
Report Text: KJFZ 272255Z AUTO 33009G15KT 10SM OVC100 M03/M16 A2993 RMK AO2 T10321160
Loading
Personal Weather Stations






























Interactive Weather Map New forecast layout! Learn more

10-Day Weather Forecast

Advertisements
Track Severe Weather on mobile